Time;durP1;ratioP1;P1;durP2;ratioP2;P2;SDS_P1;SDS_P2;PMS_P1;PMS_P2;Temp;Humidity;BMP_temperature;BMP_pressure;BME280_temperature;BME280_humidity;BME280_pressure;Samples;Min_cycle;Max_cycle;Signal;HPM_P1;HPM_P2
2023/04/07 00:00:04;;;;;;;;;;;15.40;81.00;;;;;;5136858;27;19935;-75
2023/04/07 00:02:31;;;;;;;;;;;15.40;81.00;;;;;;5136917;27;19908;-73
2023/04/07 00:04:57;;;;;;;;;;;15.40;81.00;;;;;;5136842;27;19907;-73
2023/04/07 00:07:22;;;;;;;;;;;15.40;81.00;;;;;;5137077;27;20477;-76
2023/04/07 00:09:48;;;;;;;;;;;15.40;81.10;;;;;;5119109;27;19915;-73
2023/04/07 00:12:13;;;;;;;;;;;15.40;81.10;;;;;;5136879;27;20266;-75
2023/04/07 00:14:39;;;;;;;;;;;15.40;81.10;;;;;;5136618;27;20420;-76
2023/04/07 00:17:04;;;;;;;;;;;15.40;81.10;;;;;;5136820;27;19968;-72
2023/04/07 00:19:30;;;;;;;;;;;15.40;81.10;;;;;;5118237;27;19911;-73
2023/04/07 00:21:55;;;;;;;;;;;15.40;81.00;;;;;;5118092;27;19956;-72
2023/04/07 00:24:21;;;;;;;;;;;15.50;81.10;;;;;;5136539;27;20006;-69
2023/04/07 00:26:46;;;;;;;;;;;15.50;81.00;;;;;;5117226;27;19912;-72
2023/04/07 00:29:12;;;;;;;;;;;15.50;81.00;;;;;;5136266;27;19991;-72
2023/04/07 00:31:37;;;;;;;;;;;15.50;81.00;;;;;;5135955;27;19907;-72
2023/04/07 00:34:03;;;;;;;;;;;15.50;81.00;;;;;;5117756;27;19907;-73
2023/04/07 00:36:28;;;;;;;;;;;15.50;81.00;;;;;;5135872;27;19907;-73
2023/04/07 00:38:53;;;;;;;;;;;15.50;81.50;;;;;;5136128;27;20010;-74
2023/04/07 00:41:19;;;;;;;;;;;15.50;81.00;;;;;;5135571;27;19927;-73
2023/04/07 00:43:44;;;;;;;;;;;15.50;81.00;;;;;;5135785;27;19911;-72
2023/04/07 00:46:10;;;;;;;;;;;15.50;81.00;;;;;;5135628;27;20388;-73
2023/04/07 00:48:36;;;;;;;;;;;15.50;81.00;;;;;;5135671;27;20028;-72
2023/04/07 00:51:02;;;;;;;;;;;15.50;81.00;;;;;;5135627;27;19911;-72
2023/04/07 00:53:27;;;;;;;;;;;15.50;81.00;;;;;;5135571;27;19914;-72
2023/04/07 00:55:53;;;;;;;;;;;15.40;80.90;;;;;;5117380;27;19907;-72
2023/04/07 00:58:18;;;;;;;;;;;15.40;80.90;;;;;;5135774;27;19907;-73
2023/04/07 01:00:52;;;;;;;;;;;15.50;80.90;;;;;;5135495;27;20374;-72
2023/04/07 01:03:20;;;;;;;;;;;15.40;80.90;;;;;;5135765;27;19911;-72
2023/04/07 01:05:48;;;;;;;;;;;15.40;80.90;;;;;;5135542;27;19919;-72
2023/04/07 01:08:19;;;;;;;;;;;15.40;80.90;;;;;;5135347;27;19957;-72
2023/04/07 01:10:55;;;;;;;;;;;15.40;80.90;;;;;;5116737;27;20285;-72
2023/04/07 01:13:24;;;;;;;;;;;15.50;81.00;;;;;;5117153;27;20010;-72
2023/04/07 01:15:51;;;;;;;;;;;15.40;80.90;;;;;;5135221;27;19938;-72
2023/04/07 01:18:21;;;;;;;;;;;15.50;81.00;;;;;;5135512;27;19914;-72
2023/04/07 01:20:49;;;;;;;;;;;15.40;80.90;;;;;;5135134;27;20370;-73
2023/04/07 01:23:20;;;;;;;;;;;15.40;80.90;;;;;;5135127;27;20002;-72
2023/04/07 01:26:04;;;;;;;;;;;15.40;80.90;;;;;;5135381;27;19918;-72
2023/04/07 01:28:33;;;;;;;;;;;15.40;80.90;;;;;;5116600;28;19911;-73
2023/04/07 01:30:58;;;;;;;;;;;15.40;80.80;;;;;;5135301;27;20006;-72
2023/04/07 01:33:25;;;;;;;;;;;15.50;80.90;;;;;;5134946;27;20007;-73
2023/04/07 01:35:51;;;;;;;;;;;15.50;80.90;;;;;;5135559;28;19911;-72
2023/04/07 01:38:17;;;;;;;;;;;15.40;80.90;;;;;;5116331;28;19907;-73
2023/04/07 01:40:43;;;;;;;;;;;15.50;80.90;;;;;;5135182;28;19907;-73
2023/04/07 01:43:09;;;;;;;;;;;15.40;80.80;;;;;;5135395;27;19956;-72
2023/04/07 01:45:36;;;;;;;;;;;15.50;80.90;;;;;;5134835;28;19915;-72
2023/04/07 01:48:04;;;;;;;;;;;15.40;80.90;;;;;;5134876;28;20370;-72
2023/04/07 01:50:29;;;;;;;;;;;15.40;80.80;;;;;;5116697;28;20347;-73
2023/04/07 01:52:55;;;;;;;;;;;15.40;80.90;;;;;;5135080;28;19929;-72
2023/04/07 01:55:21;;;;;;;;;;;15.40;80.90;;;;;;5135032;28;19911;-72
2023/04/07 01:57:46;;;;;;;;;;;15.40;80.80;;;;;;5135348;28;19952;-72
2023/04/07 02:00:12;;;;;;;;;;;15.40;80.80;;;;;;5135286;28;19998;-72
2023/04/07 02:02:40;;;;;;;;;;;15.50;80.90;;;;;;5134739;28;19916;-73
2023/04/07 02:05:08;;;;;;;;;;;15.40;80.80;;;;;;5116715;28;19914;-72
2023/04/07 02:07:50;;;;;;;;;;;15.50;80.80;;;;;;5134866;28;19922;-72
2023/04/07 02:10:18;;;;;;;;;;;15.50;80.80;;;;;;5135010;28;19907;-73
2023/04/07 02:12:45;;;;;;;;;;;15.50;80.80;;;;;;5134642;28;19911;-73
2023/04/07 02:15:11;;;;;;;;;;;15.50;80.80;;;;;;5134949;28;20393;-70
2023/04/07 02:17:38;;;;;;;;;;;15.50;80.80;;;;;;5134643;28;20276;-73
2023/04/07 02:20:05;;;;;;;;;;;15.50;80.80;;;;;;5116430;28;19907;-73
2023/04/07 02:22:31;;;;;;;;;;;15.40;80.80;;;;;;5134869;28;19965;-73
2023/04/07 02:24:57;;;;;;;;;;;15.50;80.90;;;;;;5116449;28;20262;-73
2023/04/07 02:27:22;;;;;;;;;;;15.40;80.80;;;;;;5134712;28;19918;-73
2023/04/07 02:29:48;;;;;;;;;;;15.50;80.80;;;;;;5116406;28;19950;-73
2023/04/07 02:32:13;;;;;;;;;;;15.40;80.80;;;;;;5134479;28;19929;-72
2023/04/07 02:34:39;;;;;;;;;;;15.50;80.80;;;;;;5134727;28;20281;-72
2023/04/07 02:37:05;;;;;;;;;;;15.40;80.80;;;;;;5134750;28;19930;-73
2023/04/07 02:39:30;;;;;;;;;;;15.40;80.80;;;;;;5134383;28;19911;-73
2023/04/07 02:41:56;;;;;;;;;;;15.40;80.80;;;;;;5134310;28;19993;-72
2023/04/07 02:44:21;;;;;;;;;;;15.40;80.70;;;;;;5134513;28;19911;-73
2023/04/07 02:46:47;;;;;;;;;;;15.50;80.80;;;;;;5134585;28;19919;-73
2023/04/07 02:49:12;;;;;;;;;;;15.40;80.70;;;;;;5135526;27;19998;-72
2023/04/07 02:51:38;;;;;;;;;;;15.40;80.70;;;;;;5137984;27;20366;-73
2023/04/07 02:54:03;;;;;;;;;;;15.40;80.70;;;;;;5119908;27;19907;-73
2023/04/07 02:56:28;;;;;;;;;;;15.50;80.70;;;;;;5138169;27;20034;-73
2023/04/07 02:58:54;;;;;;;;;;;15.50;80.70;;;;;;5138477;27;19953;-72
2023/04/07 03:01:20;;;;;;;;;;;15.50;80.70;;;;;;5137837;27;20274;-72
2023/04/07 03:03:46;;;;;;;;;;;15.40;80.60;;;;;;5138391;27;19914;-72
2023/04/07 03:06:12;;;;;;;;;;;15.40;80.60;;;;;;5137650;27;19911;-71
2023/04/07 03:08:37;;;;;;;;;;;15.40;80.70;;;;;;5137910;27;19912;-72
2023/04/07 03:11:03;;;;;;;;;;;15.40;80.70;;;;;;5137594;27;20000;-73
2023/04/07 03:13:29;;;;;;;;;;;15.40;80.70;;;;;;5119369;27;20000;-72
2023/04/07 03:15:55;;;;;;;;;;;15.40;80.70;;;;;;5137825;27;19908;-73
2023/04/07 03:18:21;;;;;;;;;;;15.40;80.70;;;;;;5137761;27;19918;-73
2023/04/07 03:20:51;;;;;;;;;;;15.40;80.70;;;;;;5137711;27;19907;-73
2023/04/07 03:23:17;;;;;;;;;;;15.40;80.60;;;;;;5119293;27;19907;-73
2023/04/07 03:25:43;;;;;;;;;;;15.40;80.70;;;;;;5119116;27;19933;-72
2023/04/07 03:28:08;;;;;;;;;;;15.40;80.70;;;;;;5137600;27;19912;-72
2023/04/07 03:30:34;;;;;;;;;;;15.40;80.70;;;;;;5137119;27;19907;-72
2023/04/07 03:32:59;;;;;;;;;;;15.40;80.70;;;;;;5137433;27;19915;-73
2023/04/07 03:35:26;;;;;;;;;;;15.40;80.70;;;;;;5137159;27;20335;-73
2023/04/07 03:37:51;;;;;;;;;;;15.40;80.70;;;;;;5137087;27;19954;-72
2023/04/07 03:40:17;;;;;;;;;;;15.40;80.70;;;;;;5118941;27;20389;-72
2023/04/07 03:42:42;;;;;;;;;;;15.40;80.70;;;;;;5137374;27;19919;-70
2023/04/07 03:45:08;;;;;;;;;;;15.40;80.70;;;;;;5137258;27;19964;-72
2023/04/07 03:47:33;;;;;;;;;;;15.40;80.60;;;;;;5137100;27;19915;-73
2023/04/07 03:49:59;;;;;;;;;;;15.40;80.60;;;;;;5137155;27;20006;-73
2023/04/07 03:52:24;;;;;;;;;;;15.40;80.70;;;;;;5136784;27;19908;-73
2023/04/07 03:54:50;;;;;;;;;;;15.40;80.70;;;;;;5136715;27;19922;-73
2023/04/07 03:57:15;;;;;;;;;;;15.40;80.70;;;;;;5136983;27;19907;-72
2023/04/07 03:59:41;;;;;;;;;;;15.40;80.70;;;;;;5136304;27;19915;-73
2023/04/07 04:02:06;;;;;;;;;;;15.40;80.70;;;;;;5135757;27;19914;-73
2023/04/07 04:04:31;;;;;;;;;;;15.40;80.70;;;;;;5136599;27;19966;-73
2023/04/07 04:06:57;;;;;;;;;;;15.40;80.70;;;;;;5136494;27;19964;-73
2023/04/07 04:09:22;;;;;;;;;;;15.40;80.70;;;;;;5118446;27;19911;-72
2023/04/07 04:11:48;;;;;;;;;;;15.40;80.70;;;;;;5118008;27;19911;-72
2023/04/07 04:14:13;;;;;;;;;;;15.40;80.70;;;;;;5136303;27;19907;-72
2023/04/07 04:16:39;;;;;;;;;;;15.40;80.70;;;;;;5136973;27;19907;-72
2023/04/07 04:19:04;;;;;;;;;;;15.40;80.70;;;;;;5118114;27;19915;-73
2023/04/07 04:21:30;;;;;;;;;;;15.40;80.70;;;;;;5118068;27;20024;-72
2023/04/07 04:23:55;;;;;;;;;;;15.40;80.70;;;;;;5136139;27;19907;-73
2023/04/07 04:26:24;;;;;;;;;;;15.40;80.70;;;;;;5117918;27;19915;-73
2023/04/07 04:28:50;;;;;;;;;;;15.40;80.70;;;;;;5118020;27;20286;-72
2023/04/07 04:31:15;;;;;;;;;;;15.40;80.70;;;;;;5136069;27;19915;-72
2023/04/07 04:33:41;;;;;;;;;;;15.40;80.70;;;;;;5135967;27;19914;-73
2023/04/07 04:36:06;;;;;;;;;;;15.40;80.70;;;;;;5117745;27;19908;-73
2023/04/07 04:38:32;;;;;;;;;;;15.40;80.70;;;;;;5136164;27;20006;-73
2023/04/07 04:40:57;;;;;;;;;;;15.40;80.70;;;;;;5136410;27;19996;-72
2023/04/07 04:43:23;;;;;;;;;;;15.40;80.70;;;;;;5117402;27;19927;-73
2023/04/07 04:45:48;;;;;;;;;;;15.40;80.70;;;;;;5135935;27;20370;-72
2023/04/07 04:48:14;;;;;;;;;;;15.40;80.70;;;;;;5135709;27;19911;-71
2023/04/07 04:50:41;;;;;;;;;;;15.40;80.70;;;;;;5135941;27;19941;-72
2023/04/07 04:53:06;;;;;;;;;;;15.40;81.20;;;;;;5135603;27;19907;-73
2023/04/07 04:55:31;;;;;;;;;;;15.40;80.70;;;;;;5117423;27;19914;-73
2023/04/07 04:57:57;;;;;;;;;;;15.40;80.70;;;;;;5135889;27;19913;-73
2023/04/07 05:00:22;;;;;;;;;;;15.40;80.70;;;;;;5135726;27;19907;-73
2023/04/07 05:02:48;;;;;;;;;;;15.40;80.60;;;;;;5135439;27;19973;-73
2023/04/07 05:05:13;;;;;;;;;;;15.40;80.70;;;;;;5135599;27;19960;-73
2023/04/07 05:07:39;;;;;;;;;;;15.40;80.60;;;;;;5117136;27;19963;-73
2023/04/07 05:10:06;;;;;;;;;;;15.40;80.60;;;;;;5135954;27;20405;-73
2023/04/07 05:12:31;;;;;;;;;;;15.40;80.60;;;;;;5116762;27;19917;-73
2023/04/07 05:14:57;;;;;;;;;;;15.40;80.60;;;;;;5135429;27;19911;-72
2023/04/07 05:17:22;;;;;;;;;;;15.40;80.60;;;;;;5135560;27;19907;-73
2023/04/07 05:19:48;;;;;;;;;;;15.40;80.60;;;;;;5135450;27;19931;-73
2023/04/07 05:22:13;;;;;;;;;;;15.40;80.60;;;;;;5135715;27;19908;-73
2023/04/07 05:24:39;;;;;;;;;;;15.40;80.70;;;;;;5135376;27;19911;-73
2023/04/07 05:27:04;;;;;;;;;;;15.40;80.70;;;;;;5135026;27;20009;-73
2023/04/07 05:29:30;;;;;;;;;;;15.40;80.70;;;;;;5135037;27;19915;-72
2023/04/07 05:31:55;;;;;;;;;;;15.40;80.70;;;;;;5135149;27;19951;-73
2023/04/07 05:34:21;;;;;;;;;;;15.40;80.70;;;;;;5135132;27;19915;-73
2023/04/07 05:36:46;;;;;;;;;;;15.40;80.70;;;;;;5135646;28;19907;-71
2023/04/07 05:39:12;;;;;;;;;;;15.40;80.70;;;;;;5134990;28;19907;-71
2023/04/07 05:41:38;;;;;;;;;;;15.40;80.70;;;;;;5134883;28;19920;-72
2023/04/07 05:44:05;;;;;;;;;;;15.40;80.70;;;;;;5135442;28;19953;-72
2023/04/07 05:46:30;;;;;;;;;;;15.40;80.70;;;;;;5135087;28;20417;-71
2023/04/07 05:48:56;;;;;;;;;;;15.40;80.70;;;;;;5135140;28;20002;-71
2023/04/07 05:51:21;;;;;;;;;;;15.40;80.70;;;;;;5134744;28;19907;-71
2023/04/07 05:53:47;;;;;;;;;;;15.40;80.70;;;;;;5134938;28;20353;-71
2023/04/07 05:56:12;;;;;;;;;;;15.40;80.70;;;;;;5134792;28;20027;-71
2023/04/07 05:58:38;;;;;;;;;;;15.40;80.70;;;;;;5135047;28;19907;-71
2023/04/07 06:01:03;;;;;;;;;;;15.40;80.70;;;;;;5135024;28;20308;-71
2023/04/07 06:03:29;;;;;;;;;;;15.40;80.70;;;;;;5134660;28;19952;-71
2023/04/07 06:05:54;;;;;;;;;;;15.40;80.70;;;;;;5134909;28;19919;-71
2023/04/07 06:08:20;;;;;;;;;;;15.40;80.60;;;;;;5116500;28;20011;-71
2023/04/07 06:10:45;;;;;;;;;;;15.40;80.70;;;;;;5135203;28;19907;-70
2023/04/07 06:13:11;;;;;;;;;;;15.40;80.60;;;;;;5116508;28;19908;-72
2023/04/07 06:15:36;;;;;;;;;;;15.40;80.70;;;;;;5116254;28;19912;-71
2023/04/07 06:18:02;;;;;;;;;;;15.50;80.70;;;;;;5116273;28;19912;-71
2023/04/07 06:20:27;;;;;;;;;;;15.40;80.70;;;;;;5134784;28;19907;-71
2023/04/07 06:22:53;;;;;;;;;;;15.40;80.70;;;;;;5134788;27;20366;-71
2023/04/07 06:25:19;;;;;;;;;;;15.40;80.70;;;;;;5137466;27;19975;-71
2023/04/07 06:27:45;;;;;;;;;;;15.40;80.70;;;;;;5138699;27;20342;-71
2023/04/07 06:30:10;;;;;;;;;;;15.40;80.70;;;;;;5138372;27;19908;-71
2023/04/07 06:32:36;;;;;;;;;;;15.40;80.70;;;;;;5138293;27;19969;-71
2023/04/07 06:35:01;;;;;;;;;;;15.40;80.70;;;;;;5138240;27;20255;-71
2023/04/07 06:37:27;;;;;;;;;;;15.40;80.70;;;;;;5138248;27;19912;-71
2023/04/07 06:39:53;;;;;;;;;;;15.40;80.70;;;;;;5138467;27;20037;-71
2023/04/07 06:42:18;;;;;;;;;;;15.40;80.70;;;;;;5138224;27;19920;-70
2023/04/07 06:44:44;;;;;;;;;;;15.40;80.70;;;;;;5138622;27;20399;-71
2023/04/07 06:47:10;;;;;;;;;;;15.40;80.70;;;;;;5138013;27;19911;-71
2023/04/07 06:49:35;;;;;;;;;;;15.40;80.80;;;;;;5137857;27;20305;-72
2023/04/07 06:52:01;;;;;;;;;;;15.40;80.80;;;;;;5138501;27;19908;-71
2023/04/07 06:54:26;;;;;;;;;;;15.40;80.80;;;;;;5137863;27;19911;-72
2023/04/07 06:56:52;;;;;;;;;;;15.40;80.80;;;;;;5120012;27;20358;-71
2023/04/07 06:59:18;;;;;;;;;;;15.40;80.90;;;;;;5138014;27;20010;-71
2023/04/07 07:01:44;;;;;;;;;;;15.40;80.80;;;;;;5137930;27;19911;-72
2023/04/07 07:04:09;;;;;;;;;;;15.40;80.90;;;;;;5137876;27;19908;-71
2023/04/07 07:06:35;;;;;;;;;;;15.40;80.90;;;;;;5137404;27;20281;-72
2023/04/07 07:09:02;;;;;;;;;;;15.40;80.90;;;;;;5137507;27;20374;-71
2023/04/07 07:11:27;;;;;;;;;;;15.40;80.90;;;;;;5137506;27;19907;-70
2023/04/07 07:13:52;;;;;;;;;;;15.40;80.90;;;;;;5137635;27;19914;-70
2023/04/07 07:16:18;;;;;;;;;;;15.40;80.90;;;;;;5137395;27;19908;-70
2023/04/07 07:18:43;;;;;;;;;;;15.40;80.90;;;;;;5119443;27;19911;-71
2023/04/07 07:21:09;;;;;;;;;;;15.40;80.90;;;;;;5137208;27;19915;-70
2023/04/07 07:23:35;;;;;;;;;;;15.40;80.90;;;;;;5137319;27;19912;-71
2023/04/07 07:26:01;;;;;;;;;;;15.40;80.90;;;;;;5137438;27;20285;-70
2023/04/07 07:28:28;;;;;;;;;;;15.40;80.90;;;;;;5137445;27;19972;-73
2023/04/07 07:30:53;;;;;;;;;;;15.40;80.90;;;;;;5137445;27;19956;-70
2023/04/07 07:33:19;;;;;;;;;;;15.40;80.90;;;;;;5137028;27;19907;-70
2023/04/07 07:35:44;;;;;;;;;;;15.50;80.90;;;;;;5136960;27;19907;-70
2023/04/07 07:38:10;;;;;;;;;;;15.50;80.90;;;;;;5136935;27;19933;-70
2023/04/07 07:40:35;;;;;;;;;;;15.50;80.90;;;;;;5136962;27;19915;-71
2023/04/07 07:43:01;;;;;;;;;;;15.50;80.90;;;;;;5136812;27;19991;-71
2023/04/07 07:45:26;;;;;;;;;;;15.50;80.90;;;;;;5137403;27;19908;-71
2023/04/07 07:47:52;;;;;;;;;;;15.50;81.00;;;;;;5137003;27;19912;-70
2023/04/07 07:50:17;;;;;;;;;;;15.50;81.50;;;;;;5136775;27;19911;-69
2023/04/07 07:52:43;;;;;;;;;;;15.50;81.00;;;;;;5136920;27;19907;-71
2023/04/07 07:55:08;;;;;;;;;;;15.50;81.00;;;;;;5136825;27;19995;-74
2023/04/07 07:57:35;;;;;;;;;;;15.40;81.00;;;;;;5118439;27;19907;-71
2023/04/07 08:00:00;;;;;;;;;;;15.40;81.00;;;;;;5118480;27;20269;-72
2023/04/07 08:02:30;;;;;;;;;;;15.40;81.10;;;;;;5136444;27;20420;-72
2023/04/07 08:04:56;;;;;;;;;;;15.40;81.10;;;;;;5118355;27;19913;-72
2023/04/07 08:07:21;;;;;;;;;;;15.40;81.20;;;;;;5136360;27;20316;-72
2023/04/07 08:09:47;;;;;;;;;;;15.40;81.20;;;;;;5136714;27;19917;-71
2023/04/07 08:12:12;;;;;;;;;;;15.40;81.20;;;;;;5136998;27;19933;-72
2023/04/07 08:14:38;;;;;;;;;;;15.40;81.20;;;;;;5136503;27;19912;-72
2023/04/07 08:17:03;;;;;;;;;;;15.40;81.20;;;;;;5136770;27;19907;-72
2023/04/07 08:19:29;;;;;;;;;;;15.40;81.30;;;;;;5136396;27;20261;-71
2023/04/07 08:21:54;;;;;;;;;;;15.40;81.30;;;;;;5117901;27;20422;-72
2023/04/07 08:24:20;;;;;;;;;;;15.40;81.30;;;;;;5136657;27;19914;-72
2023/04/07 08:26:45;;;;;;;;;;;15.40;81.30;;;;;;5136377;27;19911;-73
2023/04/07 08:29:11;;;;;;;;;;;15.40;81.30;;;;;;5136195;27;19916;-73
2023/04/07 08:31:36;;;;;;;;;;;15.40;81.30;;;;;;5135868;27;19915;-72
2023/04/07 08:34:02;;;;;;;;;;;15.40;81.30;;;;;;5135918;27;20365;-72
2023/04/07 08:36:28;;;;;;;;;;;15.40;81.30;;;;;;5135879;27;19908;-72
2023/04/07 08:38:54;;;;;;;;;;;15.40;81.30;;;;;;5136415;27;19907;-72
2023/04/07 08:41:39;;;;;;;;;;;15.40;81.30;;;;;;5135912;27;19934;-71
2023/04/07 08:44:09;;;;;;;;;;;15.50;81.30;;;;;;5117630;27;19994;-70
2023/04/07 08:46:36;;;;;;;;;;;15.50;81.30;;;;;;5135157;27;20048;-69
2023/04/07 08:49:05;;;;;;;;;;;15.50;81.30;;;;;;5135930;27;19915;-69
2023/04/07 08:51:31;;;;;;;;;;;15.50;81.30;;;;;;5117359;27;19915;-69
2023/04/07 08:54:02;;;;;;;;;;;15.50;81.70;;;;;;5117277;27;19915;-71
2023/04/07 08:56:28;;;;;;;;;;;15.50;81.20;;;;;;5135419;27;19991;-71
2023/04/07 08:58:54;;;;;;;;;;;15.50;81.70;;;;;;5135500;27;20330;-72
2023/04/07 09:01:20;;;;;;;;;;;15.50;81.10;;;;;;5135444;27;19907;-71
2023/04/07 09:03:47;;;;;;;;;;;15.50;81.10;;;;;;5135401;27;19907;-70
2023/04/07 09:06:13;;;;;;;;;;;15.60;81.20;;;;;;5135416;27;19912;-71
2023/04/07 09:08:38;;;;;;;;;;;15.60;81.20;;;;;;5135241;27;19911;-73
2023/04/07 09:11:03;;;;;;;;;;;15.60;81.20;;;;;;5135759;27;19956;-74
2023/04/07 09:13:30;;;;;;;;;;;15.60;81.20;;;;;;5135058;27;19911;-73
2023/04/07 09:15:56;;;;;;;;;;;15.60;81.20;;;;;;5135276;27;19908;-70
2023/04/07 09:18:21;;;;;;;;;;;15.60;81.20;;;;;;5116945;27;19911;-70
2023/04/07 09:20:54;;;;;;;;;;;15.60;81.20;;;;;;5135581;27;19994;-70
2023/04/07 09:23:30;;;;;;;;;;;15.50;81.10;;;;;;5116766;27;19953;-69
2023/04/07 09:25:58;;;;;;;;;;;15.60;81.20;;;;;;5116748;27;19918;-72
2023/04/07 09:28:24;;;;;;;;;;;15.50;81.10;;;;;;5135093;27;19919;-70
2023/04/07 09:30:56;;;;;;;;;;;15.60;81.20;;;;;;5134879;27;20430;-70
2023/04/07 09:33:30;;;;;;;;;;;15.60;81.20;;;;;;5134970;27;19980;-70
2023/04/07 09:35:55;;;;;;;;;;;15.60;81.20;;;;;;5134635;27;19960;-70
2023/04/07 09:38:21;;;;;;;;;;;15.50;81.20;;;;;;5135050;28;19947;-73
2023/04/07 09:40:50;;;;;;;;;;;15.50;81.20;;;;;;5134972;28;20372;-72
2023/04/07 09:43:16;;;;;;;;;;;15.60;81.30;;;;;;5135013;28;19943;-72
2023/04/07 09:45:41;;;;;;;;;;;15.50;81.20;;;;;;5134838;28;20392;-72
2023/04/07 09:48:16;;;;;;;;;;;15.50;81.20;;;;;;5134956;28;19911;-72
2023/04/07 09:50:44;;;;;;;;;;;15.50;81.20;;;;;;5134761;28;20362;-74
2023/04/07 09:53:10;;;;;;;;;;;15.50;81.20;;;;;;5116633;28;19907;-74
2023/04/07 09:55:36;;;;;;;;;;;15.60;81.30;;;;;;5116494;28;20440;-74
2023/04/07 09:58:02;;;;;;;;;;;15.60;81.30;;;;;;5136516;27;19912;-72
2023/04/07 10:00:28;;;;;;;;;;;15.50;81.30;;;;;;5139109;27;20388;-72
2023/04/07 10:02:53;;;;;;;;;;;15.50;81.20;;;;;;5138808;27;19911;-72
2023/04/07 10:05:22;;;;;;;;;;;15.50;81.30;;;;;;5120763;27;19907;-72
2023/04/07 10:07:48;;;;;;;;;;;15.50;81.30;;;;;;5139103;27;20327;-72
2023/04/07 10:10:13;;;;;;;;;;;15.50;81.30;;;;;;5120808;27;19915;-71
2023/04/07 10:12:40;;;;;;;;;;;15.50;81.30;;;;;;5139144;27;19930;-71
2023/04/07 10:15:06;;;;;;;;;;;15.50;81.30;;;;;;5120582;27;19972;-71
2023/04/07 10:17:32;;;;;;;;;;;15.50;81.30;;;;;;5138882;27;20416;-72
2023/04/07 10:19:58;;;;;;;;;;;15.50;81.30;;;;;;5139465;27;20386;-74
2023/04/07 10:22:25;;;;;;;;;;;15.50;81.30;;;;;;5139094;27;19914;-72
2023/04/07 10:24:54;;;;;;;;;;;15.60;81.40;;;;;;5120720;27;19917;-70
2023/04/07 10:27:27;;;;;;;;;;;15.50;81.30;;;;;;5138184;27;19961;-74
2023/04/07 10:29:53;;;;;;;;;;;15.50;81.30;;;;;;5138163;27;19911;-75
2023/04/07 10:32:19;;;;;;;;;;;15.60;81.30;;;;;;5138168;27;19914;-73
2023/04/07 10:34:54;;;;;;;;;;;15.60;81.30;;;;;;5119962;27;19947;-71
2023/04/07 10:37:22;;;;;;;;;;;15.60;81.30;;;;;;5138414;27;19953;-71
2023/04/07 10:39:49;;;;;;;;;;;15.60;81.30;;;;;;5120600;27;20365;-75
2023/04/07 10:42:34;;;;;;;;;;;15.60;81.30;;;;;;5138836;27;19925;-75
2023/04/07 10:45:00;;;;;;;;;;;15.60;81.30;;;;;;5138266;27;19907;-71
2023/04/07 10:47:25;;;;;;;;;;;15.60;81.30;;;;;;5138195;27;19925;-74
2023/04/07 10:50:09;;;;;;;;;;;15.60;81.30;;;;;;5138134;27;20262;-71
2023/04/07 10:52:35;;;;;;;;;;;15.60;81.30;;;;;;5138249;27;19907;-71
2023/04/07 10:55:19;;;;;;;;;;;15.60;81.30;;;;;;5138324;27;20000;-72
2023/04/07 10:58:03;;;;;;;;;;;15.60;81.30;;;;;;5119607;27;19907;-72
2023/04/07 11:00:29;;;;;;;;;;;15.60;81.40;;;;;;5119534;27;19908;-72
2023/04/07 11:02:55;;;;;;;;;;;15.60;81.40;;;;;;5138004;27;19908;-71
2023/04/07 11:05:21;;;;;;;;;;;15.60;81.40;;;;;;5138353;27;19907;-71
2023/04/07 11:07:52;;;;;;;;;;;15.60;81.40;;;;;;5137720;27;19919;-71
2023/04/07 11:10:19;;;;;;;;;;;15.60;81.40;;;;;;5137539;27;19912;-72
2023/04/07 11:12:57;;;;;;;;;;;15.60;81.40;;;;;;5137771;27;20361;-72
2023/04/07 11:15:22;;;;;;;;;;;15.60;81.40;;;;;;5119353;27;20274;-72
2023/04/07 11:18:07;;;;;;;;;;;15.60;81.40;;;;;;5137514;27;19956;-72
2023/04/07 11:20:46;;;;;;;;;;;15.60;81.40;;;;;;5137775;27;20338;-72
2023/04/07 11:23:12;;;;;;;;;;;15.60;81.40;;;;;;5137976;27;20404;-72
2023/04/07 11:25:38;;;;;;;;;;;15.60;81.40;;;;;;5138134;27;19915;-72
2023/04/07 11:28:03;;;;;;;;;;;15.60;81.40;;;;;;5137703;27;19911;-71
2023/04/07 11:30:29;;;;;;;;;;;15.60;81.40;;;;;;5137638;27;19907;-69
2023/04/07 11:32:57;;;;;;;;;;;15.60;81.40;;;;;;5137327;27;20277;-69
2023/04/07 11:35:24;;;;;;;;;;;15.60;81.40;;;;;;5137084;27;19960;-69
2023/04/07 11:37:55;;;;;;;;;;;15.60;81.40;;;;;;5136952;27;19907;-69
2023/04/07 11:40:40;;;;;;;;;;;15.60;81.40;;;;;;5136835;27;20255;-69
2023/04/07 11:43:19;;;;;;;;;;;15.60;81.30;;;;;;5136653;27;20359;-70
2023/04/07 11:45:45;;;;;;;;;;;15.70;81.40;;;;;;5136677;27;19914;-70
2023/04/07 11:48:29;;;;;;;;;;;15.70;81.30;;;;;;5118628;27;20273;-70
2023/04/07 11:50:55;;;;;;;;;;;15.70;81.20;;;;;;5118646;27;19908;-69
2023/04/07 11:53:24;;;;;;;;;;;15.70;81.20;;;;;;5137133;27;19918;-70
2023/04/07 11:55:57;;;;;;;;;;;15.70;81.10;;;;;;5136795;27;19914;-70
2023/04/07 11:58:22;;;;;;;;;;;15.70;81.10;;;;;;5136678;27;19908;-69
2023/04/07 12:00:54;;;;;;;;;;;15.70;81.10;;;;;;5137051;27;19998;-70
2023/04/07 12:03:20;;;;;;;;;;;15.70;81.10;;;;;;5118635;27;19908;-70
2023/04/07 12:05:45;;;;;;;;;;;15.70;81.10;;;;;;5136087;27;19907;-70
2023/04/07 12:08:12;;;;;;;;;;;15.70;81.10;;;;;;5136914;27;19983;-70
2023/04/07 12:10:40;;;;;;;;;;;15.70;81.10;;;;;;5118187;27;20341;-70
2023/04/07 12:13:07;;;;;;;;;;;15.70;81.20;;;;;;5118002;27;19907;-71
2023/04/07 12:15:33;;;;;;;;;;;15.70;81.20;;;;;;5136568;27;19919;-70
2023/04/07 12:17:58;;;;;;;;;;;15.70;81.20;;;;;;5117970;27;19992;-70
2023/04/07 12:20:24;;;;;;;;;;;15.70;81.20;;;;;;5118083;27;19915;-69
2023/04/07 12:22:49;;;;;;;;;;;15.70;81.20;;;;;;5135248;27;19921;-70
2023/04/07 12:25:15;;;;;;;;;;;15.70;81.20;;;;;;5136222;27;19914;-70
2023/04/07 12:27:40;;;;;;;;;;;15.70;81.30;;;;;;5117661;27;20287;-70
2023/04/07 12:30:06;;;;;;;;;;;15.70;81.30;;;;;;5135773;27;19912;-70
2023/04/07 12:32:32;;;;;;;;;;;15.70;81.30;;;;;;5135887;27;19914;-71
2023/04/07 12:34:58;;;;;;;;;;;15.70;81.30;;;;;;5136570;27;19952;-71
2023/04/07 12:37:23;;;;;;;;;;;15.70;81.60;;;;;;5117577;27;19908;-74
2023/04/07 12:39:49;;;;;;;;;;;15.70;81.30;;;;;;5135985;27;19985;-70
2023/04/07 12:42:21;;;;;;;;;;;15.70;81.30;;;;;;5132226;27;20415;-69
2023/04/07 12:44:47;;;;;;;;;;;15.70;81.30;;;;;;5131909;27;20002;-68
2023/04/07 12:47:13;;;;;;;;;;;15.70;81.40;;;;;;5132504;27;20088;-71
2023/04/07 12:49:38;;;;;;;;;;;15.60;81.30;;;;;;5132283;27;19908;-69
2023/04/07 12:52:05;;;;;;;;;;;15.60;81.30;;;;;;5130638;28;19915;-70
2023/04/07 12:54:31;;;;;;;;;;;15.60;81.40;;;;;;5131584;28;19914;-70
2023/04/07 12:56:57;;;;;;;;;;;15.60;81.30;;;;;;5130764;27;19999;-69
2023/04/07 12:59:22;;;;;;;;;;;15.70;81.40;;;;;;5130881;28;19908;-70
2023/04/07 13:01:48;;;;;;;;;;;15.60;81.30;;;;;;5130890;27;19916;-70
2023/04/07 13:04:14;;;;;;;;;;;15.60;81.40;;;;;;5132602;27;19955;-69
2023/04/07 13:06:39;;;;;;;;;;;15.60;81.30;;;;;;5131953;27;19907;-69
2023/04/07 13:09:04;;;;;;;;;;;15.60;81.40;;;;;;5132234;27;20355;-69
2023/04/07 13:11:30;;;;;;;;;;;15.60;81.40;;;;;;5132274;27;20369;-70
2023/04/07 13:13:55;;;;;;;;;;;15.60;81.40;;;;;;5131976;27;19908;-68
2023/04/07 13:16:21;;;;;;;;;;;15.60;81.40;;;;;;5130440;28;19942;-70
2023/04/07 13:18:46;;;;;;;;;;;15.60;81.40;;;;;;5130394;27;19908;-69
2023/04/07 13:21:12;;;;;;;;;;;15.60;81.40;;;;;;5131867;27;19937;-69
2023/04/07 13:23:37;;;;;;;;;;;15.60;81.40;;;;;;5131828;27;19915;-69
2023/04/07 13:26:03;;;;;;;;;;;15.60;81.40;;;;;;5132125;27;19915;-69
2023/04/07 13:28:28;;;;;;;;;;;15.60;81.40;;;;;;5131451;27;19911;-70
2023/04/07 13:30:54;;;;;;;;;;;15.60;81.40;;;;;;5131939;27;20266;-69
2023/04/07 13:33:19;;;;;;;;;;;15.60;81.40;;;;;;5130158;28;19911;-70
2023/04/07 13:35:45;;;;;;;;;;;15.60;81.40;;;;;;5131712;27;19915;-70
2023/04/07 13:38:10;;;;;;;;;;;15.60;81.40;;;;;;5131526;27;19908;-69
2023/04/07 13:40:36;;;;;;;;;;;15.60;81.40;;;;;;5131541;27;19981;-69
2023/04/07 13:43:01;;;;;;;;;;;15.60;81.40;;;;;;5129926;27;19908;-69
2023/04/07 13:45:27;;;;;;;;;;;15.60;81.40;;;;;;5131221;27;19908;-68
2023/04/07 13:47:53;;;;;;;;;;;15.60;81.40;;;;;;5131224;27;19907;-69
2023/04/07 13:50:19;;;;;;;;;;;15.60;81.40;;;;;;5131723;27;19908;-69
2023/04/07 13:52:44;;;;;;;;;;;15.60;81.30;;;;;;5123117;27;20069;-70
2023/04/07 13:55:11;;;;;;;;;;;15.60;81.40;;;;;;5117067;28;19912;-70
2023/04/07 13:57:36;;;;;;;;;;;15.60;81.40;;;;;;5117422;28;19962;-69
2023/04/07 14:00:02;;;;;;;;;;;15.60;81.30;;;;;;5117318;28;19908;-69
2023/04/07 14:02:29;;;;;;;;;;;15.60;81.30;;;;;;5117243;28;20259;-69
2023/04/07 14:04:54;;;;;;;;;;;15.70;81.40;;;;;;5117699;28;19916;-69
2023/04/07 14:07:21;;;;;;;;;;;15.60;81.30;;;;;;5116118;28;19911;-70
2023/04/07 14:09:47;;;;;;;;;;;15.60;81.30;;;;;;5116452;28;20259;-69
2023/04/07 14:12:13;;;;;;;;;;;15.60;81.30;;;;;;5116020;28;19915;-70